Time;durP1;ratioP1;P1;durP2;ratioP2;P2;SDS_P1;SDS_P2;PMS_P1;PMS_P2;Temp;Humidity;BMP_temperature;BMP_pressure;BME280_temperature;BME280_humidity;BME280_pressure;Samples;Min_cycle;Max_cycle;Signal;HPM_P1;HPM_P2
2022/08/28 00:00:40;;;;;;;3.27;1.73;;;22.40;88.80;;;;;;6100832;23;20412;-87
2022/08/28 00:03:08;;;;;;;3.70;2.20;;;22.30;88.60;;;;;;6101955;23;20504;-89
2022/08/28 00:05:36;;;;;;;2.43;1.87;;;22.30;89.00;;;;;;6102478;23;20412;-85
2022/08/28 00:08:03;;;;;;;5.43;2.43;;;22.30;88.90;;;;;;6103111;23;20442;-85
2022/08/28 00:10:30;;;;;;;3.77;2.50;;;22.20;89.60;;;;;;6100967;23;20901;-85
2022/08/28 00:12:57;;;;;;;2.50;2.30;;;22.00;90.00;;;;;;6102708;23;20419;-86
2022/08/28 00:15:28;;;;;;;3.63;1.83;;;22.20;90.20;;;;;;6124764;23;20400;-86
2022/08/28 00:17:56;;;;;;;3.90;2.20;;;22.40;89.20;;;;;;6128016;23;20441;-86
2022/08/28 00:20:24;;;;;;;3.90;1.90;;;22.10;90.00;;;;;;6105873;23;20409;-86
2022/08/28 00:22:51;;;;;;;4.20;2.60;;;22.10;89.70;;;;;;6112826;23;20823;-86
2022/08/28 00:25:22;;;;;;;4.17;2.10;;;21.90;90.10;;;;;;6109032;23;20483;-85
2022/08/28 00:27:55;;;;;;;5.20;2.23;;;22.20;90.00;;;;;;6113592;23;20520;-85
2022/08/28 00:30:33;;;;;;;3.17;1.90;;;22.20;89.40;;;;;;6121782;23;20429;-87
2022/08/28 00:33:13;;;;;;;3.40;2.03;;;22.20;89.80;;;;;;6141156;23;20408;-86
2022/08/28 00:35:41;;;;;;;1.90;1.60;;;22.10;90.00;;;;;;6139402;23;20404;-85
2022/08/28 00:38:10;;;;;;;2.90;1.93;;;22.10;90.30;;;;;;6113083;23;21022;-86
2022/08/28 00:40:38;;;;;;;2.80;2.20;;;22.20;90.20;;;;;;6110508;23;20419;-86
2022/08/28 00:43:07;;;;;;;3.90;2.07;;;22.00;90.20;;;;;;6112809;23;20436;-85
2022/08/28 00:45:34;;;;;;;6.23;3.47;;;22.10;90.30;;;;;;6113706;23;20427;-86
2022/08/28 00:48:05;;;;;;;5.23;1.97;;;22.00;90.00;;;;;;6111606;23;20931;-87
2022/08/28 00:52:04;;;;;;;5.93;2.47;;;21.90;90.50;;;;;;6113445;23;20468;-86
2022/08/28 00:53:23;;;;;;;6.37;2.63;;;21.90;90.60;;;;;;6113831;23;20447;-85
2022/08/28 00:55:50;;;;;;;2.87;1.80;;;21.90;90.40;;;;;;6112807;23;20481;-85
2022/08/28 00:58:19;;;;;;;4.47;1.90;;;21.90;90.30;;;;;;6110322;23;20448;-85
2022/08/28 01:00:48;;;;;;;2.80;2.10;;;21.70;90.30;;;;;;6111941;23;20475;-86
2022/08/28 01:03:15;;;;;;;3.97;2.17;;;21.70;90.60;;;;;;6112541;23;20447;-86
2022/08/28 01:05:46;;;;;;;2.00;1.70;;;21.60;90.50;;;;;;6112787;23;20427;-88
2022/08/28 01:08:14;;;;;;;4.50;2.00;;;21.70;90.70;;;;;;6111610;23;20774;-87
2022/08/28 01:10:48;;;;;;;2.70;1.67;;;21.90;90.30;;;;;;6111939;23;20401;-88
2022/08/28 01:13:16;;;;;;;1.90;1.53;;;22.10;89.80;;;;;;6113304;23;20788;-88
2022/08/28 01:15:47;;;;;;;3.40;1.70;;;22.00;89.90;;;;;;6113089;23;20396;-84
2022/08/28 01:18:15;;;;;;;2.20;1.70;;;21.80;90.20;;;;;;6112290;23;20488;-87
2022/08/28 01:20:53;;;;;;;2.73;1.90;;;21.70;90.60;;;;;;6113003;23;20463;-87
2022/08/28 01:23:35;;;;;;;3.80;1.67;;;21.60;90.30;;;;;;6112456;23;20408;-85
2022/08/28 01:26:02;;;;;;;2.57;1.67;;;21.60;90.60;;;;;;6137321;23;20456;-85
2022/08/28 01:28:28;;;;;;;1.90;1.50;;;21.90;90.50;;;;;;6112655;23;20426;-84
2022/08/28 01:30:55;;;;;;;2.83;1.90;;;22.00;90.00;;;;;;6115456;23;20413;-87
2022/08/28 01:33:22;;;;;;;2.73;1.80;;;22.00;89.80;;;;;;6124453;23;20397;-88
2022/08/28 01:35:53;;;;;;;3.20;2.13;;;21.80;90.10;;;;;;6123588;23;20401;-87
2022/08/28 01:38:26;;;;;;;6.13;2.17;;;22.00;90.20;;;;;;6111351;23;20504;-86
2022/08/28 01:40:57;;;;;;;2.10;1.80;;;22.00;90.10;;;;;;6119082;23;20469;-85
2022/08/28 01:43:26;;;;;;;3.33;1.60;;;22.00;89.60;;;;;;6106910;23;20417;-84
2022/08/28 01:46:03;;;;;;;7.90;1.97;;;21.80;90.00;;;;;;6104161;23;20419;-85
2022/08/28 01:48:34;;;;;;;1.90;1.60;;;21.60;90.10;;;;;;6103604;23;20420;-84
2022/08/28 01:51:03;;;;;;;3.77;1.53;;;21.50;90.50;;;;;;6105448;23;20412;-85
2022/08/28 01:53:33;;;;;;;4.50;1.60;;;21.60;90.10;;;;;;6104744;23;20397;-87
2022/08/28 01:56:08;;;;;;;3.70;1.73;;;21.70;89.90;;;;;;6106734;23;20437;-85
2022/08/28 01:58:35;;;;;;;2.63;1.53;;;21.70;89.50;;;;;;6106435;23;20952;-84
2022/08/28 02:01:19;;;;;;;2.80;1.60;;;21.50;89.60;;;;;;6108427;23;20799;-86
2022/08/28 02:03:47;;;;;;;1.53;1.43;;;21.60;89.80;;;;;;6108728;23;20410;-87
2022/08/28 02:06:16;;;;;;;3.07;1.90;;;21.60;89.60;;;;;;6109741;23;20436;-86
2022/08/28 02:08:44;;;;;;;3.53;1.50;;;21.60;90.10;;;;;;6109170;23;20883;-87
2022/08/28 02:11:14;;;;;;;5.23;1.80;;;21.60;90.20;;;;;;6112045;23;20419;-83
2022/08/28 02:13:41;;;;;;;4.00;2.10;;;21.50;90.30;;;;;;6111596;23;20413;-85
2022/08/28 02:16:10;;;;;;;1.43;1.20;;;21.50;90.10;;;;;;6120614;23;20429;-87
2022/08/28 02:18:37;;;;;;;2.53;1.70;;;21.70;89.60;;;;;;6122284;23;20436;-86
2022/08/28 02:21:05;;;;;;;4.33;1.63;;;21.70;89.00;;;;;;6122873;23;20467;-86
2022/08/28 02:23:32;;;;;;;3.10;1.50;;;21.50;89.60;;;;;;6120771;23;20413;-87
2022/08/28 02:25:59;;;;;;;2.13;1.03;;;21.40;90.10;;;;;;6123944;23;20468;-85
2022/08/28 02:28:26;;;;;;;3.63;1.40;;;21.30;90.20;;;;;;6120924;23;20433;-86
2022/08/28 02:30:53;;;;;;;3.13;1.60;;;21.30;90.00;;;;;;6122525;23;20436;-87
2022/08/28 02:33:19;;;;;;;2.20;1.50;;;21.20;90.30;;;;;;6129138;23;20484;-86
2022/08/28 02:35:50;;;;;;;4.97;2.00;;;21.30;90.50;;;;;;6105218;23;20412;-86
2022/08/28 02:38:17;;;;;;;5.83;2.17;;;21.30;90.20;;;;;;6103683;23;20528;-85
2022/08/28 02:40:44;;;;;;;4.80;1.30;;;21.30;90.10;;;;;;6106659;23;20409;-84
2022/08/28 02:43:11;;;;;;;2.37;1.50;;;21.40;90.00;;;;;;6109717;23;20420;-85
2022/08/28 02:45:38;;;;;;;3.37;1.53;;;21.40;89.60;;;;;;6112199;23;20452;-87
2022/08/28 02:48:05;;;;;;;3.57;1.50;;;21.20;90.00;;;;;;6137667;23;20776;-87
2022/08/28 02:50:37;;;;;;;4.20;2.00;;;21.20;90.20;;;;;;6114836;23;20448;-87
2022/08/28 02:53:04;;;;;;;4.00;1.93;;;21.10;90.20;;;;;;6112676;23;20425;-87
2022/08/28 02:55:32;;;;;;;4.67;1.50;;;21.20;90.40;;;;;;6112744;23;20420;-86
2022/08/28 02:58:00;;;;;;;3.93;1.57;;;21.20;90.60;;;;;;6112237;23;20475;-86
2022/08/28 03:00:29;;;;;;;4.10;2.10;;;21.40;90.30;;;;;;6112609;23;20436;-87
2022/08/28 03:02:56;;;;;;;7.23;2.17;;;21.30;90.20;;;;;;6136544;23;20440;-86
2022/08/28 03:05:24;;;;;;;6.93;2.17;;;21.40;90.20;;;;;;6135139;23;20409;-86
2022/08/28 03:07:52;;;;;;;1.80;1.50;;;21.50;89.60;;;;;;6112654;23;20448;-87
2022/08/28 03:10:19;;;;;;;5.30;1.73;;;21.40;90.00;;;;;;6111791;23;20441;-87
2022/08/28 03:12:49;;;;;;;3.97;1.80;;;21.30;90.40;;;;;;6113273;23;20411;-86
2022/08/28 03:15:16;;;;;;;3.83;1.53;;;21.20;90.50;;;;;;6114016;23;20468;-87
2022/08/28 03:17:43;;;;;;;2.50;1.60;;;21.20;90.70;;;;;;6112520;23;20456;-85
2022/08/28 03:20:17;;;;;;;2.93;1.50;;;21.20;90.50;;;;;;6114188;23;20622;-87
2022/08/28 03:25:29;;;;;;;2.70;1.60;;;21.50;89.60;;;;;;6113046;23;20385;-87
2022/08/28 03:27:56;;;;;;;3.67;1.83;;;21.50;89.70;;;;;;6137793;23;20443;-86
2022/08/28 03:30:23;;;;;;;2.93;1.63;;;21.50;89.10;;;;;;6115879;23;20397;-85
2022/08/28 03:32:50;;;;;;;4.23;1.40;;;21.30;89.10;;;;;;6116219;23;20411;-85
2022/08/28 03:35:17;;;;;;;3.33;1.93;;;21.00;90.00;;;;;;6121234;23;20421;-86
2022/08/28 03:37:46;;;;;;;4.30;1.57;;;20.90;90.40;;;;;;6123217;23;20433;-88
2022/08/28 03:40:14;;;;;;;2.33;1.77;;;20.80;90.50;;;;;;6147543;23;20396;-88
2022/08/28 03:42:41;;;;;;;5.83;1.90;;;20.90;90.40;;;;;;6123718;23;20397;-88
2022/08/28 03:45:09;;;;;;;6.83;2.13;;;21.00;90.30;;;;;;6122464;23;20413;-88
2022/08/28 03:47:38;;;;;;;3.33;1.80;;;20.90;90.40;;;;;;6122696;23;20500;-87
2022/08/28 03:50:06;;;;;;;4.33;2.27;;;21.10;90.10;;;;;;6122595;23;20419;-87
2022/08/28 03:52:33;;;;;;;4.43;1.90;;;21.20;89.40;;;;;;6145815;23;20389;-89
2022/08/28 03:55:00;;;;;;;5.93;2.33;;;21.10;90.00;;;;;;6120042;23;20427;-86
2022/08/28 03:57:26;;;;;;;5.20;2.13;;;21.20;89.50;;;;;;6113296;23;20425;-84
2022/08/28 03:59:55;;;;;;;5.87;2.10;;;21.20;89.10;;;;;;6108896;23;20462;-86
2022/08/28 04:02:21;;;;;;;4.97;2.27;;;21.20;89.30;;;;;;6110123;23;20440;-84
2022/08/28 04:04:51;;;;;;;3.47;1.70;;;21.10;89.00;;;;;;6111155;23;20397;-83
2022/08/28 04:07:18;;;;;;;3.23;2.77;;;20.90;90.10;;;;;;6107541;23;20991;-85
2022/08/28 04:09:45;;;;;;;5.60;2.47;;;20.60;90.40;;;;;;6107131;23;20412;-85
2022/08/28 04:12:13;;;;;;;5.13;1.93;;;20.60;90.60;;;;;;6110028;23;20405;-84
2022/08/28 04:14:40;;;;;;;3.63;2.07;;;20.80;90.40;;;;;;6109152;23;20440;-86
2022/08/28 04:17:07;;;;;;;4.83;2.37;;;20.80;90.40;;;;;;6110926;23;20424;-85
2022/08/28 04:19:34;;;;;;;5.10;2.83;;;20.90;90.40;;;;;;6112666;23;20449;-86
2022/08/28 04:22:04;;;;;;;5.27;2.00;;;20.90;90.30;;;;;;6111109;23;20414;-87
2022/08/28 04:24:34;;;;;;;6.30;2.37;;;20.80;89.80;;;;;;6113229;23;20416;-86
2022/08/28 04:27:05;;;;;;;5.43;3.00;;;20.80;90.20;;;;;;6113248;23;20436;-84
2022/08/28 04:29:35;;;;;;;4.47;2.43;;;20.60;90.40;;;;;;6115949;23;20412;-86
2022/08/28 04:32:02;;;;;;;2.93;2.30;;;20.50;90.60;;;;;;6114553;23;20432;-86
2022/08/28 04:34:30;;;;;;;5.17;2.63;;;20.60;90.60;;;;;;6114432;23;20429;-86
2022/08/28 04:36:57;;;;;;;6.20;3.10;;;20.60;90.50;;;;;;6113315;23;20501;-87
2022/08/28 04:39:24;;;;;;;5.93;3.00;;;20.80;90.30;;;;;;6114568;23;20452;-86
2022/08/28 04:41:55;;;;;;;6.07;2.70;;;20.60;90.40;;;;;;6116452;23;20436;-85
2022/08/28 04:44:22;;;;;;;5.03;2.90;;;20.70;90.30;;;;;;6114295;23;20403;-85
2022/08/28 04:46:49;;;;;;;6.00;2.93;;;20.60;90.30;;;;;;6115320;23;20503;-85
2022/08/28 04:49:17;;;;;;;5.20;3.00;;;20.60;90.40;;;;;;6117634;23;20424;-84
2022/08/28 04:51:45;;;;;;;7.13;2.67;;;20.60;90.60;;;;;;6116880;23;20415;-86
2022/08/28 04:54:15;;;;;;;4.80;2.20;;;20.50;90.80;;;;;;6116147;23;20447;-86
2022/08/28 04:56:42;;;;;;;5.10;3.17;;;20.40;91.30;;;;;;6116589;23;20462;-85
2022/08/28 04:59:10;;;;;;;5.00;2.63;;;20.50;91.20;;;;;;6114650;23;20448;-87
2022/08/28 05:01:38;;;;;;;5.40;3.47;;;20.30;91.20;;;;;;6113361;23;20405;-86
2022/08/28 05:04:05;;;;;;;3.73;2.40;;;20.40;91.20;;;;;;6111429;23;20756;-87
2022/08/28 05:06:35;;;;;;;4.17;2.93;;;20.30;91.20;;;;;;6109911;23;20424;-86
2022/08/28 05:09:06;;;;;;;5.57;3.20;;;20.20;91.30;;;;;;6110448;23;20417;-84
2022/08/28 05:11:38;;;;;;;6.53;3.20;;;20.10;91.80;;;;;;6109690;23;20423;-85
2022/08/28 05:14:10;;;;;;;7.60;3.30;;;20.00;92.10;;;;;;6112013;23;20405;-86
2022/08/28 05:16:47;;;;;;;3.90;2.47;;;20.00;92.00;;;;;;6108279;23;20420;-86
2022/08/28 05:19:17;;;;;;;6.37;2.80;;;20.10;91.60;;;;;;6108480;23;20778;-84
2022/08/28 05:21:46;;;;;;;7.20;3.33;;;20.30;91.80;;;;;;6109003;23;20408;-85
2022/08/28 05:24:13;;;;;;;6.87;3.27;;;20.30;91.30;;;;;;6109787;23;20440;-84
2022/08/28 05:26:41;;;;;;;4.70;3.50;;;20.20;91.60;;;;;;6111043;23;20425;-87
2022/08/28 05:29:08;;;;;;;6.30;3.80;;;20.00;91.70;;;;;;6109168;23;20455;-86
2022/08/28 05:31:37;;;;;;;5.00;3.23;;;20.10;91.90;;;;;;6112420;23;20413;-87
2022/08/28 05:34:05;;;;;;;6.57;3.10;;;20.20;91.70;;;;;;6111987;23;20442;-86
2022/08/28 05:36:34;;;;;;;4.20;2.80;;;20.20;91.20;;;;;;6114808;23;20456;-85
2022/08/28 05:39:05;;;;;;;5.63;2.70;;;20.10;91.10;;;;;;6113181;23;20445;-85
2022/08/28 05:41:32;;;;;;;7.90;3.13;;;20.00;91.30;;;;;;6111778;23;20417;-85
2022/08/28 05:44:01;;;;;;;9.17;3.43;;;20.10;91.40;;;;;;6110830;23;20427;-85
2022/08/28 05:46:29;;;;;;;9.97;2.93;;;20.00;91.40;;;;;;6111878;23;20460;-85
2022/08/28 05:48:56;;;;;;;5.03;3.27;;;19.90;91.80;;;;;;6137357;23;20416;-87
2022/08/28 05:51:25;;;;;;;7.50;3.40;;;20.00;91.70;;;;;;6109852;23;20437;-86
2022/08/28 05:53:53;;;;;;;5.10;3.00;;;19.90;92.00;;;;;;6116991;23;20510;-87
2022/08/28 05:56:23;;;;;;;7.10;4.20;;;20.10;91.90;;;;;;6108905;23;20772;-85
2022/08/28 05:58:50;;;;;;;5.40;2.40;;;20.10;91.80;;;;;;6107718;23;20512;-85
2022/08/28 06:01:20;;;;;;;7.70;2.83;;;20.00;91.90;;;;;;6131283;23;20469;-85
2022/08/28 06:03:56;;;;;;;6.40;3.40;;;20.00;92.10;;;;;;6109826;23;20475;-84
2022/08/28 06:06:25;;;;;;;5.60;3.57;;;20.10;91.90;;;;;;6109875;23;20500;-83
2022/08/28 06:09:00;;;;;;;8.07;3.83;;;20.30;91.80;;;;;;6109086;23;20427;-85
2022/08/28 06:11:28;;;;;;;5.63;3.20;;;20.20;91.60;;;;;;6108001;23;20420;-85
2022/08/28 06:13:59;;;;;;;7.07;2.97;;;20.30;91.10;;;;;;6108889;23;20417;-85
2022/08/28 06:16:26;;;;;;;7.87;3.40;;;20.20;91.30;;;;;;6108017;23;20539;-85
2022/08/28 06:18:55;;;;;;;8.70;3.10;;;20.10;91.40;;;;;;6107936;23;20500;-86
2022/08/28 06:21:23;;;;;;;7.80;3.50;;;20.20;91.50;;;;;;6109547;23;20488;-87
2022/08/28 06:23:50;;;;;;;8.70;4.10;;;20.40;90.90;;;;;;6132852;23;20507;-87
2022/08/28 06:26:17;;;;;;;8.63;3.60;;;20.20;91.00;;;;;;6108903;23;20432;-88
2022/08/28 06:28:44;;;;;;;7.83;3.50;;;20.30;91.30;;;;;;6132632;23;20416;-86
2022/08/28 06:31:12;;;;;;;9.43;3.70;;;20.30;91.20;;;;;;6110123;23;20413;-86
2022/08/28 06:33:49;;;;;;;6.77;3.43;;;20.40;91.30;;;;;;6108658;23;20413;-87
2022/08/28 06:36:16;;;;;;;10.60;3.70;;;20.50;91.20;;;;;;6109648;23;20443;-87
2022/08/28 06:38:45;;;;;;;7.63;3.50;;;20.60;90.90;;;;;;6110225;23;20457;-85
2022/08/28 06:41:14;;;;;;;5.53;3.30;;;20.40;90.90;;;;;;6109379;23;20412;-85
2022/08/28 06:43:41;;;;;;;5.17;3.50;;;20.40;90.70;;;;;;6110584;23;20424;-85
2022/08/28 06:46:08;;;;;;;4.83;2.97;;;20.60;90.70;;;;;;6110922;23;20487;-87
2022/08/28 06:48:35;;;;;;;7.10;3.60;;;20.60;90.40;;;;;;6110757;23;20424;-86
2022/08/28 06:51:06;;;;;;;6.20;3.10;;;20.50;90.50;;;;;;6110782;23;20428;-84
2022/08/28 06:53:37;;;;;;;5.30;3.10;;;20.40;90.60;;;;;;6114726;23;20427;-85
2022/08/28 06:56:11;;;;;;;3.97;2.60;;;20.60;90.80;;;;;;6115892;23;20432;-85
2022/08/28 06:58:52;;;;;;;8.13;3.33;;;20.70;90.60;;;;;;6120040;23;20437;-89
2022/08/28 07:01:23;;;;;;;5.87;3.17;;;20.70;90.30;;;;;;6113034;23;20515;-86
2022/08/28 07:03:52;;;;;;;7.10;3.53;;;20.60;90.60;;;;;;6105513;23;20425;-86
2022/08/28 07:06:23;;;;;;;7.27;3.33;;;20.80;90.30;;;;;;6108701;23;20527;-85
2022/08/28 07:08:57;;;;;;;7.20;3.10;;;20.70;90.30;;;;;;6103289;23;20416;-86
2022/08/28 07:11:27;;;;;;;4.10;2.87;;;20.70;90.60;;;;;;6101689;23;20457;-87
2022/08/28 07:13:55;;;;;;;4.53;3.67;;;21.00;90.20;;;;;;6099805;23;20422;-86
2022/08/28 07:16:26;;;;;;;6.73;3.30;;;20.90;90.10;;;;;;6103503;23;20435;-87
2022/08/28 07:18:56;;;;;;;4.20;2.70;;;21.10;90.00;;;;;;6120197;23;20377;-85
2022/08/28 07:21:22;;;;;;;7.73;3.97;;;21.40;89.10;;;;;;6123396;23;20412;-85
2022/08/28 07:23:50;;;;;;;5.20;2.87;;;21.40;89.00;;;;;;6111351;23;20452;-85
2022/08/28 07:26:21;;;;;;;6.73;3.37;;;21.20;88.30;;;;;;6105415;23;20453;-85
2022/08/28 07:28:49;;;;;;;7.00;3.23;;;21.10;89.10;;;;;;6083647;23;20397;-83
2022/08/28 07:31:22;;;;;;;7.13;2.90;;;21.20;88.90;;;;;;6109209;23;20417;-87
2022/08/28 07:33:49;;;;;;;9.27;3.73;;;21.20;88.80;;;;;;6105814;23;20460;-86
2022/08/28 07:36:20;;;;;;;5.70;2.60;;;21.50;88.30;;;;;;6108013;23;20436;-86
2022/08/28 07:38:57;;;;;;;6.37;3.27;;;21.80;87.20;;;;;;6106484;23;20396;-84
2022/08/28 07:41:28;;;;;;;3.60;2.50;;;21.80;85.60;;;;;;6108657;23;20432;-87
2022/08/28 07:46:41;;;;;;;4.90;2.53;;;21.50;87.40;;;;;;6111049;23;20441;-86
2022/08/28 07:49:09;;;;;;;4.60;2.50;;;21.90;86.00;;;;;;6112021;23;20405;-86
2022/08/28 07:51:36;;;;;;;3.33;2.70;;;21.80;85.80;;;;;;6112988;23;20495;-86
2022/08/28 07:54:04;;;;;;;6.50;2.30;;;21.90;85.20;;;;;;6113032;23;20424;-87
2022/08/28 07:56:32;;;;;;;4.00;2.60;;;21.90;85.60;;;;;;6111777;23;20436;-85
2022/08/28 07:59:00;;;;;;;4.93;2.80;;;22.10;84.70;;;;;;6116754;23;20421;-87
2022/08/28 08:01:29;;;;;;;5.13;2.53;;;22.20;83.90;;;;;;6110925;23;20424;-86
2022/08/28 08:03:59;;;;;;;5.13;2.70;;;22.40;82.60;;;;;;6114144;23;20436;-87
2022/08/28 08:06:30;;;;;;;5.90;2.83;;;22.50;83.60;;;;;;6114751;23;20842;-86
2022/08/28 08:08:59;;;;;;;5.77;2.37;;;22.80;82.50;;;;;;6138278;23;20815;-86
2022/08/28 08:11:26;;;;;;;4.60;2.73;;;23.30;80.60;;;;;;6115489;23;20420;-88
2022/08/28 08:13:56;;;;;;;4.93;2.93;;;23.60;79.00;;;;;;6111396;23;20499;-87
2022/08/28 08:16:26;;;;;;;5.20;3.07;;;23.70;77.80;;;;;;6112974;23;20457;-85
2022/08/28 08:18:53;;;;;;;7.60;2.53;;;24.00;76.40;;;;;;6112097;23;20416;-85
2022/08/28 08:21:21;;;;;;;9.23;2.90;;;24.30;74.80;;;;;;6108830;23;20464;-85
2022/08/28 08:23:50;;;;;;;6.00;5.20;;;24.10;74.60;;;;;;6110414;23;20416;-87
2022/08/28 08:26:21;;;;;;;6.60;2.77;;;23.70;75.40;;;;;;6135522;23;20436;-87
2022/08/28 08:28:53;;;;;;;6.10;3.10;;;23.60;76.20;;;;;;6111076;23;20920;-87
2022/08/28 08:31:22;;;;;;;3.83;2.53;;;23.70;75.60;;;;;;6110953;23;20393;-86
2022/08/28 08:33:57;;;;;;;4.67;2.70;;;23.70;75.40;;;;;;6114638;23;20397;-85
2022/08/28 08:36:26;;;;;;;7.80;2.70;;;24.20;75.10;;;;;;6135141;23;20440;-85
2022/08/28 08:38:57;;;;;;;6.67;2.73;;;24.40;73.20;;;;;;6112014;23;20409;-84
2022/08/28 08:41:49;;;;;;;5.57;2.33;;;24.50;72.80;;;;;;6112025;23;20627;-85
2022/08/28 08:44:20;;;;;;;8.27;2.83;;;24.70;71.60;;;;;;6113725;23;20365;-88
2022/08/28 08:46:56;;;;;;;4.07;2.10;;;24.90;70.70;;;;;;6137895;23;20440;-87
2022/08/28 08:49:28;;;;;;;3.87;2.10;;;25.10;70.00;;;;;;6136741;23;20427;-86
2022/08/28 08:52:10;;;;;;;5.13;2.67;;;24.60;70.60;;;;;;6113829;23;20873;-86
2022/08/28 08:54:44;;;;;;;8.53;3.57;;;24.50;71.00;;;;;;6115012;23;20448;-87
2022/08/28 08:57:13;;;;;;;4.87;2.50;;;24.50;70.90;;;;;;6111557;23;20432;-88
2022/08/28 08:59:41;;;;;;;3.87;2.40;;;24.30;71.70;;;;;;6113176;23;20455;-86
2022/08/28 09:02:21;;;;;;;6.17;2.13;;;24.40;71.20;;;;;;6112589;23;20433;-85
2022/08/28 09:05:04;;;;;;;6.33;2.77;;;24.60;70.10;;;;;;6134278;23;20495;-86
2022/08/28 09:07:57;;;;;;;5.87;2.30;;;24.60;70.10;;;;;;6115302;23;20428;-88
2022/08/28 09:10:41;;;;;;;5.27;2.40;;;24.60;69.60;;;;;;6115851;23;20382;-87
2022/08/28 09:13:38;;;;;;;4.93;2.80;;;24.70;68.90;;;;;;6119285;23;20464;-85
2022/08/28 09:16:16;;;;;;;2.23;1.93;;;24.20;69.80;;;;;;6114676;23;20456;-85
2022/08/28 09:18:43;;;;;;;5.77;2.77;;;23.90;70.30;;;;;;6137146;23;20405;-86
2022/08/28 09:21:10;;;;;;;4.23;2.63;;;24.30;70.60;;;;;;6112451;23;20502;-88
2022/08/28 09:23:38;;;;;;;5.07;2.33;;;24.20;69.50;;;;;;6112235;23;20443;-88
2022/08/28 09:26:11;;;;;;;5.00;2.43;;;24.50;70.00;;;;;;6115733;23;20452;-83
2022/08/28 09:28:43;;;;;;;4.83;2.40;;;24.70;69.40;;;;;;6113905;23;20500;-85
2022/08/28 09:31:14;;;;;;;4.70;2.30;;;24.70;68.80;;;;;;6113075;23;20857;-87
2022/08/28 09:33:45;;;;;;;4.10;2.43;;;25.40;68.20;;;;;;6114751;23;20515;-84
2022/08/28 09:36:33;;;;;;;5.63;2.93;;;27.40;63.00;;;;;;6112697;23;20456;-86
2022/08/28 09:39:19;;;;;;;3.97;2.10;;;28.60;57.00;;;;;;6113494;23;20408;-85
2022/08/28 09:44:53;;;;;;;3.30;2.03;;;29.10;54.20;;;;;;6110255;23;20419;-86
2022/08/28 09:47:56;;;;;;;3.83;2.27;;;28.90;53.60;;;;;;6131964;23;20428;-84
2022/08/28 09:50:35;;;;;;;3.80;2.37;;;28.00;54.30;;;;;;6050000;23;20697;-87
2022/08/28 09:53:08;;;;;;;3.13;2.37;;;27.90;54.10;;;;;;6104132;23;20887;-85
2022/08/28 09:55:37;;;;;;;4.47;1.97;;;27.90;54.20;;;;;;6103104;23;20417;-85
2022/08/28 09:58:05;;;;;;;4.23;2.03;;;28.10;54.50;;;;;;6101603;23;20437;-87
2022/08/28 10:00:48;;;;;;;5.10;2.10;;;28.60;53.40;;;;;;6126672;23;20444;-85
2022/08/28 10:03:28;;;;;;;2.73;1.93;;;29.10;52.30;;;;;;6106541;23;20397;-86
2022/08/28 10:06:07;;;;;;;5.07;2.50;;;29.40;51.10;;;;;;6124530;23;20404;-85
2022/08/28 10:09:16;;;;;;;3.27;2.10;;;29.60;49.70;;;;;;6101739;23;20397;-85
2022/08/28 10:12:03;;;;;;;3.10;2.00;;;29.00;51.20;;;;;;6099760;23;20897;-85
2022/08/28 10:15:04;;;;;;;5.40;2.13;;;29.60;50.50;;;;;;6103708;23;20397;-86
2022/08/28 10:17:47;;;;;;;5.20;2.30;;;30.10;49.40;;;;;;6101526;23;20466;-84
2022/08/28 10:20:47;;;;;;;2.83;2.13;;;29.30;49.10;;;;;;6125934;23;20448;-84
2022/08/28 10:23:42;;;;;;;4.00;2.17;;;28.80;49.70;;;;;;6105519;23;20382;-84
2022/08/28 10:26:14;;;;;;;3.17;2.00;;;28.90;50.30;;;;;;6127136;23;20432;-84
2022/08/28 10:28:59;;;;;;;3.20;2.00;;;29.10;49.50;;;;;;6110257;23;20410;-86
2022/08/28 10:31:32;;;;;;;3.13;2.30;;;28.50;50.60;;;;;;6103754;23;20419;-85
2022/08/28 10:34:21;;;;;;;5.80;2.27;;;27.90;51.60;;;;;;6127002;23;20420;-85
2022/08/28 10:37:09;;;;;;;4.17;2.30;;;27.20;52.50;;;;;;6125299;23;20470;-84
2022/08/28 10:39:42;;;;;;;4.87;2.60;;;26.80;53.60;;;;;;6114650;23;20464;-85
2022/08/28 10:42:09;;;;;;;3.03;2.53;;;26.80;54.30;;;;;;6111016;23;20420;-86
2022/08/28 10:44:50;;;;;;;5.00;2.50;;;27.00;54.20;;;;;;6099520;23;20711;-83
2022/08/28 10:47:20;;;;;;;4.00;2.10;;;27.40;53.40;;;;;;6125719;23;20491;-85
2022/08/28 10:49:50;;;;;;;4.50;2.40;;;27.10;53.70;;;;;;6104948;23;20413;-82
2022/08/28 10:52:25;;;;;;;4.13;2.40;;;27.40;53.60;;;;;;6103708;23;20392;-84
2022/08/28 10:54:57;;;;;;;4.10;2.77;;;27.50;53.20;;;;;;6104530;23;20440;-86
2022/08/28 10:57:49;;;;;;;4.83;2.60;;;27.60;53.00;;;;;;6104490;23;20417;-86
2022/08/28 11:00:22;;;;;;;4.90;2.50;;;28.60;51.20;;;;;;6125366;23;20447;-84
2022/08/28 11:02:54;;;;;;;5.20;2.70;;;29.00;50.40;;;;;;6102705;23;20469;-84
2022/08/28 11:05:23;;;;;;;5.27;2.57;;;28.70;50.70;;;;;;6101072;23;20947;-85
2022/08/28 11:07:54;;;;;;;5.20;2.70;;;28.70;50.90;;;;;;6099757;23;20535;-85
2022/08/28 11:10:36;;;;;;;4.97;2.93;;;28.60;51.00;;;;;;6100294;23;20417;-85
2022/08/28 11:13:05;;;;;;;4.73;2.90;;;28.80;50.40;;;;;;6103215;23;20411;-85
2022/08/28 11:15:31;;;;;;;4.70;3.03;;;28.50;50.40;;;;;;6100731;23;20421;-85
2022/08/28 11:18:14;;;;;;;7.73;2.30;;;28.60;50.80;;;;;;6102330;23;20440;-86
2022/08/28 11:21:23;;;;;;;3.53;2.50;;;29.40;47.80;;;;;;6125307;23;20446;-85
2022/08/28 11:24:13;;;;;;;4.90;2.50;;;28.70;48.00;;;;;;5986493;24;20430;-84
2022/08/28 11:26:56;;;;;;;3.90;2.70;;;28.30;48.70;;;;;;6093499;23;20508;-85
2022/08/28 11:30:03;;;;;;;4.27;2.43;;;27.90;49.10;;;;;;6141456;23;20428;-85
2022/08/28 11:32:33;;;;;;;4.07;2.50;;;28.90;47.20;;;;;;6098748;23;20412;-84
2022/08/28 11:35:05;;;;;;;5.03;2.30;;;29.10;46.00;;;;;;6100467;23;20445;-84
2022/08/28 11:37:38;;;;;;;2.30;1.73;;;29.30;46.10;;;;;;6098852;23;20435;-86
2022/08/28 11:40:18;;;;;;;5.60;2.00;;;29.00;45.60;;;;;;6099860;23;20459;-85
2022/08/28 11:42:49;;;;;;;3.00;2.10;;;29.10;45.90;;;;;;6122883;23;20471;-85
2022/08/28 11:45:40;;;;;;;4.87;2.37;;;29.30;45.40;;;;;;6099882;23;20419;-85
2022/08/28 11:48:07;;;;;;;4.47;2.20;;;29.50;45.20;;;;;;6099528;23;20490;-85
2022/08/28 11:51:02;;;;;;;3.87;2.20;;;29.80;44.40;;;;;;6123675;23;20424;-84
2022/08/28 11:54:02;;;;;;;3.80;2.00;;;29.60;44.80;;;;;;6101374;23;20452;-83
2022/08/28 11:57:01;;;;;;;5.10;2.00;;;29.30;46.10;;;;;;6097907;23;20447;-87
2022/08/28 11:59:57;;;;;;;4.77;2.03;;;28.70;46.80;;;;;;6100755;23;20532;-85
2022/08/28 12:02:44;;;;;;;3.70;2.30;;;29.10;46.70;;;;;;6124753;23;20404;-85
2022/08/28 12:05:14;;;;;;;3.80;2.53;;;29.80;45.00;;;;;;6100538;23;20421;-86
2022/08/28 12:07:49;;;;;;;3.77;1.97;;;30.10;44.10;;;;;;6122604;23;20531;-84
2022/08/28 12:10:19;;;;;;;2.50;1.70;;;29.50;44.60;;;;;;6100666;23;20416;-87
2022/08/28 12:12:46;;;;;;;3.13;1.70;;;29.70;43.90;;;;;;6130106;23;20487;-85
2022/08/28 12:15:33;;;;;;;2.33;1.73;;;29.80;44.00;;;;;;6133388;23;20444;-85
2022/08/28 12:18:12;;;;;;;3.03;1.57;;;30.00;43.60;;;;;;6129831;23;20460;-83
2022/08/28 12:21:05;;;;;;;4.50;2.10;;;29.30;43.80;;;;;;6133995;23;20429;-87
2022/08/28 12:23:40;;;;;;;4.27;1.90;;;28.60;45.60;;;;;;6109464;23;20417;-86
2022/08/28 12:26:09;;;;;;;3.30;1.70;;;28.50;46.20;;;;;;6111045;23;20459;-85
2022/08/28 12:28:43;;;;;;;5.30;2.80;;;29.00;44.80;;;;;;6129707;23;20427;-85
2022/08/28 12:32:09;;;;;;;5.30;2.37;;;28.70;45.20;;;;;;6104113;23;20392;-86
2022/08/28 12:34:13;;;;;;;2.73;1.80;;;28.70;46.00;;;;;;6103415;23;20413;-87
2022/08/28 12:36:40;;;;;;;7.67;2.30;;;29.00;45.80;;;;;;6102090;23;20439;-85
2022/08/28 12:39:15;;;;;;;4.73;1.97;;;29.00;45.90;;;;;;6107495;23;20409;-86
2022/08/28 12:41:43;;;;;;;2.10;1.77;;;28.60;45.70;;;;;;6115427;23;20511;-85
2022/08/28 12:44:13;;;;;;;3.70;2.00;;;28.80;45.70;;;;;;6104810;23;20405;-85
2022/08/28 12:46:42;;;;;;;2.17;1.70;;;28.70;46.20;;;;;;6127375;23;20527;-85
2022/08/28 12:49:28;;;;;;;3.73;2.10;;;28.60;46.20;;;;;;6104304;23;20397;-86
2022/08/28 12:52:19;;;;;;;3.40;1.70;;;28.50;45.70;;;;;;6106108;23;20423;-86
2022/08/28 12:54:47;;;;;;;3.90;2.10;;;28.50;45.70;;;;;;6103658;23;20773;-84
2022/08/28 12:57:21;;;;;;;3.70;1.90;;;28.40;45.60;;;;;;6102203;23;20424;-85
2022/08/28 12:59:50;;;;;;;3.27;2.20;;;28.60;44.90;;;;;;6101142;23;20382;-83
2022/08/28 13:02:21;;;;;;;3.10;2.00;;;29.20;44.50;;;;;;6102443;23;20451;-85
2022/08/28 13:05:10;;;;;;;2.87;1.60;;;29.70;43.60;;;;;;6105538;23;20913;-84
2022/08/28 13:07:44;;;;;;;2.80;1.77;;;29.20;43.90;;;;;;6110588;23;20443;-85
2022/08/28 13:10:21;;;;;;;2.60;1.70;;;29.00;44.00;;;;;;6136752;23;20460;-86
2022/08/28 13:13:01;;;;;;;2.47;1.70;;;29.20;44.10;;;;;;6105179;23;20416;-85
2022/08/28 13:15:43;;;;;;;3.00;1.73;;;28.80;43.80;;;;;;6108938;23;20389;-89
2022/08/28 13:18:30;;;;;;;3.03;1.40;;;28.80;44.10;;;;;;6109938;23;20409;-86
2022/08/28 13:21:16;;;;;;;4.17;1.60;;;29.10;44.00;;;;;;6108608;23;20478;-87
2022/08/28 13:23:53;;;;;;;3.13;2.03;;;29.20;44.40;;;;;;6109648;23;20409;-85